Terminal Aerodrome Forecast
Issued by NWS Jackson, MS

Home | Current Version | Previous Version | Text Only | Print | Product List | Glossary On
Versions: 1 2 3 4 5 6 7 8 9 10 11 12
000
FTUS44 KJAN 220500
TAFHBG
TAF
KHBG 220520Z 2206/2306 00000KT P6SM SKC
     FM221000 00000KT 4SM BR SKC
     FM221400 02007KT P6SM SKC
     FM221800 01010G18KT P6SM SCT050
     FM230100 35005KT P6SM SKC=

USA.gov is the U.S. government's official web portal to all federal, state and local government web resources and services.